Ob ' Jacevo, Russia
Current Conditions -  °F | °C
As of 2:00 AM on Wednesday 26 Nov 2014 (Local Time) from UUYY Reporting Station
Freezing Rain Freezing Rain  
Wind Chill: 18°   Ceiling: 1000
Heat Index: 27°   Visibility: 6mi
Dew Point: 23°   Wind: 9mph
Humidity: 86%   Direction: 270°W
Pressure: 30.06"   Gusts: 16mph
Location:  60.37°N, 49.65°E
Report Text: UUYY 252300Z 27004G07MPS 250V310 9999 -FZRA BKN010CB OVC066 M03/M05 Q1018 TEMPO 1000 SHSN 1945//35 RMK QFE755/1007
Loading
Personal Weather Stations






























Interactive Weather Map New forecast layout! Learn more

10-Day Weather Forecast

Advertisements
Track Severe Weather on mobile